createdAt,value
2023-01-17T00:00:43.669Z,3.58
2023-01-17T00:01:43.727Z,3.59
2023-01-17T00:02:43.789Z,3.57
2023-01-17T00:03:43.869Z,3.57
2023-01-17T00:04:43.814Z,3.57
2023-01-17T00:05:43.848Z,3.59
2023-01-17T00:06:43.916Z,3.6
2023-01-17T00:07:43.930Z,3.6
2023-01-17T00:08:43.992Z,3.59
2023-01-17T00:09:44.012Z,3.58
2023-01-17T00:10:44.068Z,3.57
2023-01-17T00:11:44.085Z,3.57
2023-01-17T00:12:44.132Z,3.55
2023-01-17T00:13:44.159Z,3.58
2023-01-17T00:14:44.201Z,3.56
2023-01-17T00:15:44.296Z,3.58
2023-01-17T00:16:44.256Z,3.57
2023-01-17T00:17:44.327Z,3.58
2023-01-17T00:18:44.347Z,3.57
2023-01-17T00:19:44.362Z,3.57
2023-01-17T00:20:44.404Z,3.56
2023-01-17T00:21:44.438Z,3.57
2023-01-17T00:22:44.499Z,3.59
2023-01-17T00:23:44.591Z,3.61
2023-01-17T00:24:44.552Z,3.59
2023-01-17T00:25:44.583Z,3.6
2023-01-17T00:26:44.619Z,3.59
2023-01-17T00:27:44.661Z,3.58
2023-01-17T00:28:44.715Z,3.57
2023-01-17T00:29:44.722Z,3.59
2023-01-17T00:30:44.756Z,3.57
2023-01-17T00:31:44.836Z,3.59
2023-01-17T00:32:44.826Z,3.59
2023-01-17T00:33:44.867Z,3.53
2023-01-17T00:34:44.898Z,3.55
2023-01-17T00:35:44.941Z,3.57
2023-01-17T00:36:44.976Z,3.55
2023-01-17T00:37:45.023Z,3.54
2023-01-17T00:38:45.050Z,3.55
2023-01-17T00:39:45.095Z,3.55
2023-01-17T00:40:45.121Z,3.53
2023-01-17T00:41:45.160Z,3.55
2023-01-17T00:42:45.203Z,3.55
2023-01-17T00:43:45.237Z,3.53
2023-01-17T00:44:45.276Z,3.54
2023-01-17T00:45:45.338Z,3.53
2023-01-17T00:46:45.449Z,3.54
2023-01-17T00:47:45.384Z,3.54
2023-01-17T00:48:45.415Z,3.53
2023-01-17T00:49:45.451Z,3.54
2023-01-17T00:50:45.517Z,3.52
2023-01-17T00:51:45.527Z,3.52
2023-01-17T00:52:45.565Z,3.52
2023-01-17T00:53:45.597Z,3.49
2023-01-17T00:54:45.636Z,3.48
2023-01-17T00:55:45.679Z,3.49
2023-01-17T00:56:45.726Z,3.49
2023-01-17T00:57:45.771Z,3.49
2023-01-17T00:58:45.804Z,3.49
2023-01-17T00:59:45.828Z,3.49
2023-01-17T01:00:45.992Z,3.48
2023-01-17T01:01:46.126Z,3.49
2023-01-17T01:02:45.998Z,3.5
2023-01-17T01:03:45.975Z,3.5
2023-01-17T01:04:46.013Z,3.46
2023-01-17T01:05:46.049Z,3.46
2023-01-17T01:06:46.128Z,3.44
2023-01-17T01:07:46.111Z,3.45
2023-01-17T01:08:46.132Z,3.46
2023-01-17T01:09:46.164Z,3.43
2023-01-17T01:10:46.197Z,3.45
2023-01-17T01:11:46.246Z,3.44
2023-01-17T01:12:46.279Z,3.43
2023-01-17T01:13:46.341Z,3.43
2023-01-17T01:14:46.352Z,3.44
2023-01-17T01:15:46.381Z,3.45
2023-01-17T01:16:46.413Z,3.45
2023-01-17T01:17:46.452Z,3.45
2023-01-17T01:18:46.496Z,3.46
2023-01-17T01:19:46.533Z,3.46
2023-01-17T01:20:46.565Z,3.48
2023-01-17T01:21:46.608Z,3.48
2023-01-17T01:22:46.640Z,3.47
2023-01-17T01:23:46.689Z,3.47
2023-01-17T01:24:46.713Z,3.5
2023-01-17T01:25:46.778Z,3.48
2023-01-17T01:26:46.794Z,3.47
2023-01-17T01:27:46.840Z,3.47
2023-01-17T01:28:46.876Z,3.5
2023-01-17T01:29:46.922Z,3.49
2023-01-17T01:30:46.960Z,3.48
2023-01-17T01:31:47.071Z,3.49
2023-01-17T01:32:47.007Z,3.5
2023-01-17T01:33:47.046Z,3.49
2023-01-17T01:34:47.078Z,3.49
2023-01-17T01:35:47.126Z,3.49
2023-01-17T01:36:47.154Z,3.48
2023-01-17T01:37:47.196Z,3.5
2023-01-17T01:38:47.224Z,3.49
2023-01-17T01:39:47.267Z,3.49
2023-01-17T01:40:47.303Z,3.49
2023-01-17T01:41:47.364Z,3.49
2023-01-17T01:42:47.379Z,3.43
2023-01-17T01:43:47.443Z,3.41
2023-01-17T01:44:47.479Z,3.41
2023-01-17T01:45:47.801Z,3.41
2023-01-17T01:46:47.565Z,3.41
2023-01-17T01:47:47.592Z,3.42
2023-01-17T01:48:47.622Z,3.43
2023-01-17T01:49:47.651Z,3.44
2023-01-17T01:50:47.691Z,3.45
2023-01-17T01:51:47.740Z,3.44
2023-01-17T01:52:47.765Z,3.45
2023-01-17T01:53:47.804Z,3.44
2023-01-17T01:54:47.837Z,3.38
2023-01-17T01:55:47.872Z,3.38
2023-01-17T01:56:47.923Z,3.39
2023-01-17T01:57:47.953Z,3.39
2023-01-17T01:58:47.975Z,3.38
2023-01-17T01:59:48.004Z,3.38
2023-01-17T02:00:48.069Z,3.4
2023-01-17T02:01:48.222Z,3.38
2023-01-17T02:02:48.094Z,3.32
2023-01-17T02:03:48.187Z,3.32
2023-01-17T02:04:48.174Z,3.33
2023-01-17T02:05:48.213Z,3.32
2023-01-17T02:06:48.242Z,3.32
2023-01-17T02:07:48.275Z,3.31
2023-01-17T02:08:48.307Z,3.32
2023-01-17T02:09:48.344Z,3.34
2023-01-17T02:10:48.384Z,3.32
2023-01-17T02:11:48.491Z,3.29
2023-01-17T02:12:48.453Z,3.32
2023-01-17T02:13:48.500Z,3.31
2023-01-17T02:14:48.530Z,3.3
2023-01-17T02:15:48.563Z,3.31
2023-01-17T02:16:48.609Z,3.32
2023-01-17T02:17:48.635Z,3.3
2023-01-17T02:18:48.676Z,3.31
2023-01-17T02:19:48.713Z,3.32
2023-01-17T02:20:48.748Z,3.32
2023-01-17T02:21:48.786Z,3.31
2023-01-17T02:22:48.818Z,3.27
2023-01-17T02:23:48.854Z,3.29
2023-01-17T02:24:48.911Z,3.29
2023-01-17T02:25:48.928Z,3.29
2023-01-17T02:26:48.958Z,3.29
2023-01-17T02:27:49.010Z,3.29
2023-01-17T02:28:49.036Z,3.29
2023-01-17T02:29:49.072Z,3.32
2023-01-17T02:30:49.108Z,3.33
2023-01-17T02:31:49.173Z,3.35
2023-01-17T02:32:49.173Z,3.35
2023-01-17T02:33:49.206Z,3.34
2023-01-17T02:34:49.240Z,3.33
2023-01-17T02:35:49.293Z,3.36
2023-01-17T02:36:49.364Z,3.37
2023-01-17T02:37:49.397Z,3.38
2023-01-17T02:38:49.385Z,3.37
2023-01-17T02:39:49.422Z,3.37
2023-01-17T02:40:49.463Z,3.38
2023-01-17T02:41:49.494Z,3.38
2023-01-17T02:42:49.546Z,3.38
2023-01-17T02:43:49.589Z,3.39
2023-01-17T02:44:49.614Z,3.44
2023-01-17T02:45:49.743Z,3.44
2023-01-17T02:46:49.697Z,3.47
2023-01-17T02:47:49.733Z,3.5
2023-01-17T02:48:49.760Z,3.49
2023-01-17T02:49:49.801Z,3.52
2023-01-17T02:50:49.850Z,3.51
2023-01-17T02:51:49.879Z,3.58
2023-01-17T02:52:49.923Z,3.61
2023-01-17T02:53:49.984Z,3.61
2023-01-17T02:54:49.996Z,3.63
2023-01-17T02:55:50.046Z,3.61
2023-01-17T02:56:50.083Z,3.61
2023-01-17T02:57:50.119Z,3.63
2023-01-17T02:58:50.167Z,3.64
2023-01-17T02:59:50.187Z,3.69
2023-01-17T03:00:50.390Z,3.72
2023-01-17T03:01:50.367Z,3.72
2023-01-17T03:02:50.380Z,3.73
2023-01-17T03:03:50.330Z,3.75
2023-01-17T03:04:50.366Z,3.75
2023-01-17T03:05:50.397Z,3.75
2023-01-17T03:06:50.444Z,3.76
2023-01-17T03:07:50.474Z,3.76
2023-01-17T03:08:50.514Z,3.77
2023-01-17T03:09:50.556Z,3.75
2023-01-17T03:10:50.582Z,3.77
2023-01-17T03:11:50.608Z,3.76
2023-01-17T03:12:50.651Z,3.76
2023-01-17T03:13:50.701Z,3.81
2023-01-17T03:14:50.753Z,3.81
2023-01-17T03:15:50.810Z,3.82
2023-01-17T03:16:50.878Z,3.83
2023-01-17T03:17:50.850Z,3.83
2023-01-17T03:18:50.891Z,3.84
2023-01-17T03:19:50.917Z,3.85
2023-01-17T03:20:50.967Z,3.84
2023-01-17T03:21:51.024Z,3.85
2023-01-17T03:22:51.025Z,3.84
2023-01-17T03:23:51.062Z,3.84
2023-01-17T03:24:51.095Z,3.85
2023-01-17T03:25:51.131Z,3.85
2023-01-17T03:26:51.214Z,3.85
2023-01-17T03:27:51.210Z,3.85
2023-01-17T03:28:51.276Z,3.86
2023-01-17T03:29:51.291Z,3.86
2023-01-17T03:30:51.377Z,3.87
2023-01-17T03:31:51.382Z,3.92
2023-01-17T03:32:51.414Z,3.92
2023-01-17T03:33:51.446Z,3.93
2023-01-17T03:34:51.495Z,3.93
2023-01-17T03:35:51.527Z,3.94
2023-01-17T03:36:51.569Z,3.94
2023-01-17T03:37:51.611Z,3.94
2023-01-17T03:38:51.638Z,3.94
2023-01-17T03:39:51.679Z,3.94
2023-01-17T03:40:51.726Z,3.95
2023-01-17T03:41:51.751Z,3.95
2023-01-17T03:42:51.780Z,3.98
2023-01-17T03:43:51.820Z,3.97
2023-01-17T03:44:51.854Z,3.97
2023-01-17T03:45:52.016Z,3.97
2023-01-17T03:46:51.940Z,3.97
2023-01-17T03:47:51.975Z,3.97
2023-01-17T03:48:52.015Z,3.96
2023-01-17T03:49:52.038Z,3.97
2023-01-17T03:50:52.076Z,3.96
2023-01-17T03:51:52.113Z,3.98
2023-01-17T03:52:52.155Z,4
2023-01-17T03:53:52.201Z,4.01
2023-01-17T03:54:52.238Z,4.04
2023-01-17T03:55:52.273Z,4.04
2023-01-17T03:56:52.332Z,4.03
2023-01-17T03:57:52.346Z,4.03
2023-01-17T03:58:52.381Z,4.02
2023-01-17T03:59:52.419Z,4.02
2023-01-17T04:00:52.545Z,4.02
2023-01-17T04:01:52.695Z,4.04
2023-01-17T04:02:52.583Z,4.06
2023-01-17T04:03:52.580Z,4.05
2023-01-17T04:04:52.606Z,4.05
2023-01-17T04:05:52.634Z,4.04
2023-01-17T04:06:52.690Z,4.04
2023-01-17T04:07:52.704Z,4.05
2023-01-17T04:08:52.733Z,4.07
2023-01-17T04:09:52.768Z,4.07
2023-01-17T04:10:52.820Z,4.08
2023-01-17T04:11:52.871Z,4.06
2023-01-17T04:12:52.900Z,4.05
2023-01-17T04:13:52.939Z,4.05
2023-01-17T04:14:52.985Z,4.05
2023-01-17T04:15:53.011Z,4.05
2023-01-17T04:16:53.147Z,4.08
2023-01-17T04:17:53.089Z,4.11
2023-01-17T04:18:53.120Z,4.11
2023-01-17T04:19:53.151Z,4.12
2023-01-17T04:20:53.184Z,4.12
2023-01-17T04:21:53.222Z,4.12
2023-01-17T04:22:53.262Z,4.12
2023-01-17T04:23:53.314Z,4.14
2023-01-17T04:24:53.334Z,4.14
2023-01-17T04:25:53.362Z,4.14
2023-01-17T04:26:53.405Z,4.15
2023-01-17T04:27:53.438Z,4.16
2023-01-17T04:28:53.495Z,4.18
2023-01-17T04:29:53.522Z,4.2
2023-01-17T04:30:53.596Z,4.21
2023-01-17T04:31:53.681Z,4.22
2023-01-17T04:32:53.612Z,4.23
2023-01-17T04:33:53.661Z,4.23
2023-01-17T04:34:53.700Z,4.23
2023-01-17T04:35:53.726Z,4.23
2023-01-17T04:36:53.760Z,4.23
2023-01-17T04:37:53.809Z,4.26
2023-01-17T04:38:53.838Z,4.25
2023-01-17T04:39:53.875Z,4.27
2023-01-17T04:40:53.919Z,4.27
2023-01-17T04:41:53.955Z,4.27
2023-01-17T04:42:53.980Z,4.27
2023-01-17T04:43:54.038Z,4.27
2023-01-17T04:44:54.068Z,4.27
2023-01-17T04:45:54.138Z,4.26
2023-01-17T04:46:54.138Z,4.26
2023-01-17T04:47:54.166Z,4.24
2023-01-17T04:48:54.216Z,4.25
2023-01-17T04:49:54.243Z,4.24
2023-01-17T04:50:54.278Z,4.26
2023-01-17T04:51:54.316Z,4.27
2023-01-17T04:52:54.348Z,4.24
2023-01-17T04:53:54.406Z,4.25
2023-01-17T04:54:54.439Z,4.25
2023-01-17T04:55:54.471Z,4.25
2023-01-17T04:56:54.499Z,4.25
2023-01-17T04:57:54.555Z,4.26
2023-01-17T04:58:54.578Z,4.24
2023-01-17T04:59:54.618Z,4.25
2023-01-17T05:00:54.673Z,4.24
2023-01-17T05:01:54.750Z,4.25
2023-01-17T05:02:54.768Z,4.25
2023-01-17T05:03:54.785Z,4.25
2023-01-17T05:04:54.814Z,4.26
2023-01-17T05:05:54.851Z,4.3
2023-01-17T05:06:54.888Z,4.29
2023-01-17T05:07:54.917Z,4.3
2023-01-17T05:08:54.947Z,4.3
2023-01-17T05:09:55.005Z,4.32
2023-01-17T05:10:55.061Z,4.33
2023-01-17T05:11:55.070Z,4.33
2023-01-17T05:12:55.092Z,4.32
2023-01-17T05:13:55.131Z,4.32
2023-01-17T05:14:55.159Z,4.33
2023-01-17T05:15:55.253Z,4.31
2023-01-17T05:16:55.238Z,4.32
2023-01-17T05:17:55.260Z,4.32
2023-01-17T05:18:55.299Z,4.32
2023-01-17T05:19:55.329Z,4.32
2023-01-17T05:20:55.367Z,4.31
2023-01-17T05:21:55.398Z,4.3
2023-01-17T05:22:55.584Z,4.3
2023-01-17T05:23:55.476Z,4.29
2023-01-17T05:24:55.536Z,4.29
2023-01-17T05:25:55.561Z,4.3
2023-01-17T05:26:55.594Z,4.29
2023-01-17T05:27:55.625Z,4.28
2023-01-17T05:28:55.669Z,4.27
2023-01-17T05:29:55.706Z,4.27
2023-01-17T05:30:55.827Z,4.28
2023-01-17T05:31:55.796Z,4.31
2023-01-17T05:32:55.830Z,4.32
2023-01-17T05:33:55.876Z,4.31
2023-01-17T05:34:55.914Z,4.31
2023-01-17T05:35:55.983Z,4.31
2023-01-17T05:36:55.977Z,4.3
2023-01-17T05:37:56.024Z,4.3
2023-01-17T05:38:56.057Z,4.3
2023-01-17T05:39:56.100Z,4.31
2023-01-17T05:40:56.157Z,4.29
2023-01-17T05:41:56.189Z,4.28
2023-01-17T05:42:56.225Z,4.26
2023-01-17T05:43:56.259Z,4.24
2023-01-17T05:44:56.297Z,4.25
2023-01-17T05:45:56.398Z,4.25
2023-01-17T05:46:56.438Z,4.26
2023-01-17T05:47:56.402Z,4.26
2023-01-17T05:48:56.437Z,4.27
2023-01-17T05:49:56.478Z,4.28
2023-01-17T05:50:56.520Z,4.29
2023-01-17T05:51:56.539Z,4.31
2023-01-17T05:52:56.591Z,4.3
2023-01-17T05:53:56.605Z,4.29
2023-01-17T05:54:56.655Z,4.29
2023-01-17T05:55:56.695Z,4.3
2023-01-17T05:56:56.738Z,4.29
2023-01-17T05:57:56.780Z,4.29
2023-01-17T05:58:56.818Z,4.28
2023-01-17T05:59:56.860Z,4.29
2023-01-17T06:00:57.000Z,4.29
2023-01-17T06:01:56.942Z,4.28
2023-01-17T06:02:57.087Z,4.29
2023-01-17T06:03:57.022Z,4.29
2023-01-17T06:04:57.069Z,4.28
2023-01-17T06:05:57.089Z,4.28
2023-01-17T06:06:57.135Z,4.29
2023-01-17T06:07:57.165Z,4.29
2023-01-17T06:08:57.229Z,4.29
2023-01-17T06:09:57.258Z,4.28
2023-01-17T06:10:57.277Z,4.29
2023-01-17T06:11:57.318Z,4.29
2023-01-17T06:12:57.361Z,4.28
2023-01-17T06:13:57.387Z,4.29
2023-01-17T06:14:57.463Z,4.28
2023-01-17T06:15:57.526Z,4.28
2023-01-17T06:16:57.503Z,4.28
2023-01-17T06:17:57.538Z,4.29
2023-01-17T06:18:57.564Z,4.28
2023-01-17T06:19:57.623Z,4.28
2023-01-17T06:20:57.681Z,4.29
2023-01-17T06:21:57.675Z,4.29
2023-01-17T06:22:57.716Z,4.28
2023-01-17T06:23:57.764Z,4.29
2023-01-17T06:24:57.796Z,4.32
2023-01-17T06:25:57.854Z,4.28
2023-01-17T06:26:57.881Z,4.27
2023-01-17T06:27:57.938Z,4.27
2023-01-17T06:28:57.955Z,4.27
2023-01-17T06:29:57.995Z,4.24
2023-01-17T06:30:58.038Z,4.24
2023-01-17T06:31:59.691Z,4.24
2023-01-17T06:32:58.098Z,4.24
2023-01-17T06:33:58.131Z,4.24
2023-01-17T06:34:58.181Z,4.24
2023-01-17T06:35:58.210Z,4.25
2023-01-17T06:36:58.253Z,4.26
2023-01-17T06:37:58.314Z,4.26
2023-01-17T06:38:58.317Z,4.26
2023-01-17T06:39:58.361Z,4.26
2023-01-17T06:40:58.403Z,4.26
2023-01-17T06:41:58.441Z,4.26
2023-01-17T06:42:58.474Z,4.25
2023-01-17T06:43:58.512Z,4.23
2023-01-17T06:44:58.549Z,4.24
2023-01-17T06:45:58.591Z,4.25
2023-01-17T06:46:58.622Z,4.26
2023-01-17T06:47:58.654Z,4.25
2023-01-17T06:48:58.692Z,4.25
2023-01-17T06:49:58.742Z,4.25
2023-01-17T06:50:58.764Z,4.26
2023-01-17T06:51:58.838Z,4.26
2023-01-17T06:52:58.834Z,4.26
2023-01-17T06:53:58.871Z,4.26
2023-01-17T06:54:58.913Z,4.25
2023-01-17T06:55:58.964Z,4.22
2023-01-17T06:56:58.978Z,4.2
2023-01-17T06:57:59.027Z,4.2
2023-01-17T06:58:59.070Z,4.19
2023-01-17T06:59:59.090Z,4.19
2023-01-17T07:00:59.274Z,4.2
2023-01-17T07:01:59.149Z,4.19
2023-01-17T07:02:59.223Z,4.18
2023-01-17T07:03:59.276Z,4.19
2023-01-17T07:04:59.258Z,4.18
2023-01-17T07:05:59.302Z,4.17
2023-01-17T07:06:59.336Z,4.18
2023-01-17T07:07:59.386Z,4.17
2023-01-17T07:08:59.422Z,4.15
2023-01-17T07:09:59.456Z,4.15
2023-01-17T07:10:59.479Z,4.15
2023-01-17T07:11:59.523Z,4.15
2023-01-17T07:12:59.564Z,4.16
2023-01-17T07:13:59.601Z,4.15
2023-01-17T07:14:59.654Z,4.15
2023-01-17T07:15:59.691Z,4.14
2023-01-17T07:16:59.703Z,4.15
2023-01-17T07:17:59.744Z,4.15
2023-01-17T07:18:59.775Z,4.15
2023-01-17T07:19:59.809Z,4.15
2023-01-17T07:20:59.860Z,4.14
2023-01-17T07:21:59.895Z,4.14
2023-01-17T07:22:59.914Z,4.15
2023-01-17T07:23:59.969Z,4.14
2023-01-17T07:24:59.978Z,4.13
2023-01-17T07:26:00.040Z,4.14
2023-01-17T07:27:00.070Z,4.15
2023-01-17T07:28:00.100Z,4.15
2023-01-17T07:29:00.124Z,4.15
2023-01-17T07:30:00.173Z,4.13
2023-01-17T07:31:00.344Z,4.15
2023-01-17T07:32:00.227Z,4.14
2023-01-17T07:33:00.267Z,4.15
2023-01-17T07:34:00.287Z,4.15
2023-01-17T07:35:00.347Z,4.17
2023-01-17T07:36:00.360Z,4.14
2023-01-17T07:37:00.395Z,4.16
2023-01-17T07:38:00.435Z,4.14
2023-01-17T07:39:00.469Z,4.12
2023-01-17T07:40:00.543Z,4.12
2023-01-17T07:41:00.571Z,4.12
2023-01-17T07:42:00.569Z,4.12
2023-01-17T07:43:00.608Z,4.12
2023-01-17T07:44:00.651Z,4.12
2023-01-17T07:45:00.709Z,4.12
2023-01-17T07:46:02.184Z,4.1
2023-01-17T07:47:00.747Z,4.1
2023-01-17T07:48:00.787Z,4.13
2023-01-17T07:49:00.831Z,4.12
2023-01-17T07:50:00.855Z,4.12
2023-01-17T07:51:00.891Z,4.13
2023-01-17T07:52:00.934Z,4.13
2023-01-17T07:53:00.968Z,4.14
2023-01-17T07:54:01.004Z,4.14
2023-01-17T07:55:01.033Z,4.14
2023-01-17T07:56:01.090Z,4.14
2023-01-17T07:57:01.094Z,4.14
2023-01-17T07:58:02.991Z,4.13
2023-01-17T07:59:01.166Z,4.13
2023-01-17T08:00:01.205Z,4.13
2023-01-17T08:01:01.343Z,4.16
2023-01-17T08:02:01.428Z,4.18
2023-01-17T08:03:01.290Z,4.18
2023-01-17T08:04:01.363Z,4.18
2023-01-17T08:05:01.370Z,4.15
2023-01-17T08:06:01.402Z,4.16
2023-01-17T08:07:01.439Z,4.15
2023-01-17T08:08:01.479Z,4.16
2023-01-17T08:09:01.507Z,4.15
2023-01-17T08:10:01.557Z,4.16
2023-01-17T08:11:01.565Z,4.17
2023-01-17T08:12:01.611Z,4.18
2023-01-17T08:13:01.638Z,4.17
2023-01-17T08:14:01.664Z,4.2
2023-01-17T08:15:01.713Z,4.18
2023-01-17T08:16:01.787Z,4.19
2023-01-17T08:17:01.772Z,4.18
2023-01-17T08:18:01.813Z,4.19
2023-01-17T08:19:01.837Z,4.2
2023-01-17T08:20:01.876Z,4.19
2023-01-17T08:21:01.906Z,4.19
2023-01-17T08:22:01.953Z,4.22
2023-01-17T08:23:01.988Z,4.21
2023-01-17T08:24:02.027Z,4.19
2023-01-17T08:25:02.045Z,4.18
2023-01-17T08:26:02.101Z,4.19
2023-01-17T08:27:02.127Z,4.19
2023-01-17T08:28:02.151Z,4.17
2023-01-17T08:29:02.185Z,4.17
2023-01-17T08:30:02.230Z,4.17
2023-01-17T08:31:02.269Z,4.16
2023-01-17T08:32:02.321Z,4.16
2023-01-17T08:33:02.343Z,4.15
2023-01-17T08:34:02.383Z,4.18
2023-01-17T08:35:02.403Z,4.16
2023-01-17T08:36:02.438Z,4.16
2023-01-17T08:37:02.465Z,4.14
2023-01-17T08:38:02.489Z,4.13
2023-01-17T08:39:02.615Z,4.13
2023-01-17T08:40:02.562Z,4.13
2023-01-17T08:41:02.597Z,4.14
2023-01-17T08:42:02.642Z,4.15
2023-01-17T08:43:02.675Z,4.14
2023-01-17T08:44:02.780Z,4.12
2023-01-17T08:45:02.740Z,4.13
2023-01-17T08:46:02.824Z,4.15
2023-01-17T08:47:02.795Z,4.18
2023-01-17T08:48:02.832Z,4.15
2023-01-17T08:49:03.023Z,4.15
2023-01-17T08:50:02.909Z,4.14
2023-01-17T08:51:02.938Z,4.16
2023-01-17T08:52:02.963Z,4.16
2023-01-17T08:53:03.005Z,4.19
2023-01-17T08:54:03.031Z,4.17
2023-01-17T08:55:03.084Z,4.18
2023-01-17T08:56:03.091Z,4.24
2023-01-17T08:57:03.129Z,4.23
2023-01-17T08:58:03.171Z,4.2
2023-01-17T08:59:03.230Z,4.22
2023-01-17T09:00:03.229Z,4.21
2023-01-17T09:01:03.412Z,4.2
2023-01-17T09:02:03.476Z,4.22
2023-01-17T09:03:03.335Z,4.27
2023-01-17T09:04:03.403Z,4.31
2023-01-17T09:05:03.406Z,4.29
2023-01-17T09:06:03.426Z,4.27
2023-01-17T09:07:03.473Z,4.25
2023-01-17T09:08:03.501Z,4.26
2023-01-17T09:09:03.534Z,4.28
2023-01-17T09:10:03.572Z,4.28
2023-01-17T09:11:03.638Z,4.22
2023-01-17T09:12:03.645Z,4.27
2023-01-17T09:13:03.702Z,4.28
2023-01-17T09:14:03.780Z,4.26
2023-01-17T09:15:03.746Z,4.26
2023-01-17T09:16:03.791Z,4.26
2023-01-17T09:17:03.804Z,4.27
2023-01-17T09:18:03.840Z,4.26
2023-01-17T09:19:03.901Z,4.24
2023-01-17T09:20:03.917Z,4.21
2023-01-17T09:21:03.951Z,4.22
2023-01-17T09:22:03.984Z,4.23
2023-01-17T09:23:04.030Z,4.25
2023-01-17T09:24:04.058Z,4.25
2023-01-17T09:25:04.102Z,4.29
2023-01-17T09:26:04.175Z,4.29
2023-01-17T09:27:04.173Z,4.3
2023-01-17T09:28:04.197Z,4.31
2023-01-17T09:29:04.227Z,4.31
2023-01-17T09:30:04.269Z,4.31
2023-01-17T09:31:04.394Z,4.31
2023-01-17T09:32:04.335Z,4.31
2023-01-17T09:33:04.365Z,4.3
2023-01-17T09:34:04.411Z,4.28
2023-01-17T09:35:04.435Z,4.28
2023-01-17T09:36:04.500Z,4.28
2023-01-17T09:37:04.509Z,4.28
2023-01-17T09:38:04.540Z,4.28
2023-01-17T09:39:04.591Z,4.28
2023-01-17T09:40:04.620Z,4.3
2023-01-17T09:41:04.650Z,4.32
2023-01-17T09:42:04.682Z,4.26
2023-01-17T09:43:04.721Z,4.26
2023-01-17T09:44:04.775Z,4.26
2023-01-17T09:45:04.797Z,4.27
2023-01-17T09:46:04.868Z,4.27
2023-01-17T09:47:04.929Z,4.26
2023-01-17T09:48:04.908Z,4.27
2023-01-17T09:49:04.937Z,4.28
2023-01-17T09:50:04.964Z,4.28
2023-01-17T09:51:04.995Z,4.3
2023-01-17T09:52:05.022Z,4.28
2023-01-17T09:53:05.072Z,4.25
2023-01-17T09:54:05.127Z,4.26
2023-01-17T09:55:07.299Z,4.28
2023-01-17T09:56:05.179Z,4.29
2023-01-17T09:57:05.210Z,4.29
2023-01-17T09:58:05.255Z,4.32
2023-01-17T09:59:05.308Z,4.32
2023-01-17T10:00:05.321Z,4.32
2023-01-17T10:01:05.420Z,4.3
2023-01-17T10:02:05.556Z,4.31
2023-01-17T10:03:05.544Z,4.3
2023-01-17T10:04:07.930Z,4.31
2023-01-17T10:05:05.550Z,4.31
2023-01-17T10:06:05.523Z,4.29
2023-01-17T10:07:05.575Z,4.26
2023-01-17T10:08:05.603Z,4.25
2023-01-17T10:09:05.652Z,4.26
2023-01-17T10:10:05.700Z,4.26
2023-01-17T10:11:05.727Z,4.24
2023-01-17T10:12:05.755Z,4.24
2023-01-17T10:13:05.779Z,4.21
2023-01-17T10:14:05.823Z,4.2
2023-01-17T10:15:05.847Z,4.19
2023-01-17T10:16:05.878Z,4.19
2023-01-17T10:17:05.920Z,4.18
2023-01-17T10:18:05.956Z,4.14
2023-01-17T10:19:05.988Z,4.14
2023-01-17T10:20:06.024Z,4.12
2023-01-17T10:21:06.062Z,4.12
2023-01-17T10:22:06.096Z,4.12
2023-01-17T10:23:06.135Z,4.12
2023-01-17T10:24:06.172Z,4.09
2023-01-17T10:25:06.198Z,4.1
2023-01-17T10:26:06.276Z,4.09
2023-01-17T10:27:06.264Z,4.09
2023-01-17T10:28:06.305Z,4.09
2023-01-17T10:29:06.337Z,4.06
2023-01-17T10:30:06.366Z,4.05
2023-01-17T10:31:06.469Z,4.04
2023-01-17T10:32:06.440Z,4.06
2023-01-17T10:33:06.494Z,4.07
2023-01-17T10:34:06.532Z,4.09
2023-01-17T10:35:06.553Z,4.11
2023-01-17T10:36:06.612Z,4.11
2023-01-17T10:37:06.626Z,4.12
2023-01-17T10:38:06.655Z,4.12
2023-01-17T10:39:06.686Z,4.09
2023-01-17T10:40:06.725Z,4.11
2023-01-17T10:41:06.753Z,4.12
2023-01-17T10:42:06.784Z,4.12
2023-01-17T10:43:06.829Z,4.1
2023-01-17T10:44:06.870Z,4.11
2023-01-17T10:45:06.911Z,4.12
2023-01-17T10:46:06.991Z,4.12
2023-01-17T10:47:06.967Z,4.13
2023-01-17T10:48:06.994Z,4.15
2023-01-17T10:49:07.029Z,4.17
2023-01-17T10:50:07.073Z,4.1
2023-01-17T10:51:07.098Z,4.1
2023-01-17T10:52:07.126Z,4.09
2023-01-17T10:53:07.158Z,4.09
2023-01-17T10:54:07.196Z,4.1
2023-01-17T10:55:07.241Z,4.12
2023-01-17T10:56:07.266Z,4.15
2023-01-17T10:57:07.305Z,4.1
2023-01-17T10:58:07.334Z,4.1
2023-01-17T10:59:07.372Z,4.12
2023-01-17T11:00:07.407Z,4.14
2023-01-17T11:01:07.602Z,4.13
2023-01-17T11:02:07.721Z,4.15
2023-01-17T11:03:07.572Z,4.15
2023-01-17T11:04:07.536Z,4.14
2023-01-17T11:05:07.570Z,4.15
2023-01-17T11:06:07.605Z,4.09
2023-01-17T11:07:07.637Z,4.09
2023-01-17T11:08:07.668Z,4.1
2023-01-17T11:09:07.700Z,4.11
2023-01-17T11:10:07.729Z,4.13
2023-01-17T11:11:07.767Z,4.14
2023-01-17T11:12:07.816Z,4.13
2023-01-17T11:13:07.844Z,4.11
2023-01-17T11:14:07.883Z,4.11
2023-01-17T11:15:07.905Z,4.08
2023-01-17T11:16:08.058Z,4.05
2023-01-17T11:17:08.013Z,4.08
2023-01-17T11:18:08.013Z,4.09
2023-01-17T11:19:08.061Z,4.07
2023-01-17T11:20:08.077Z,4.06
2023-01-17T11:21:08.140Z,4.03
2023-01-17T11:22:08.136Z,4.03
2023-01-17T11:23:08.168Z,4.04
2023-01-17T11:24:08.198Z,4.05
2023-01-17T11:25:08.237Z,4.08
2023-01-17T11:26:08.304Z,4.09
2023-01-17T11:27:08.308Z,4.12
2023-01-17T11:28:08.368Z,4.12
2023-01-17T11:29:08.352Z,4.14
2023-01-17T11:30:08.408Z,4.16
2023-01-17T11:31:08.515Z,4.15
2023-01-17T11:32:08.460Z,4.21
2023-01-17T11:33:08.515Z,4.32
2023-01-17T11:34:08.555Z,4.36
2023-01-17T11:35:08.588Z,4.43
2023-01-17T11:36:08.622Z,4.48
2023-01-17T11:37:08.673Z,4.51
2023-01-17T11:38:08.676Z,4.57
2023-01-17T11:39:08.721Z,4.55
2023-01-17T11:40:08.813Z,4.56
2023-01-17T11:41:08.790Z,4.53
2023-01-17T11:42:08.816Z,4.53
2023-01-17T11:43:08.850Z,4.52
2023-01-17T11:44:08.886Z,4.48
2023-01-17T11:45:08.925Z,4.47
2023-01-17T11:46:09.012Z,4.45
2023-01-17T11:47:09.017Z,4.47
2023-01-17T11:48:09.080Z,4.45
2023-01-17T11:49:09.047Z,4.45
2023-01-17T11:50:09.082Z,4.44
2023-01-17T11:51:09.133Z,4.46
2023-01-17T11:52:09.151Z,4.44
2023-01-17T11:53:09.186Z,4.45
2023-01-17T11:54:09.212Z,4.46
2023-01-17T11:55:09.251Z,4.45
2023-01-17T11:56:09.281Z,4.47
2023-01-17T11:57:09.308Z,4.47
2023-01-17T11:58:09.343Z,4.45
2023-01-17T11:59:09.412Z,4.46
2023-01-17T12:00:09.412Z,4.46
2023-01-17T12:01:09.533Z,4.43
2023-01-17T12:02:09.479Z,4.41
2023-01-17T12:03:09.511Z,4.4
2023-01-17T12:04:09.604Z,4.39
2023-01-17T12:05:09.645Z,4.38
2023-01-17T12:06:09.622Z,4.38
2023-01-17T12:07:09.674Z,4.42
2023-01-17T12:08:09.686Z,4.43
2023-01-17T12:09:09.740Z,4.42
2023-01-17T12:10:09.777Z,4.42
2023-01-17T12:11:09.803Z,4.43
2023-01-17T12:12:09.847Z,4.4
2023-01-17T12:13:09.868Z,4.38
2023-01-17T12:14:09.894Z,4.35
2023-01-17T12:15:09.925Z,4.4
2023-01-17T12:16:10.004Z,4.42
2023-01-17T12:17:09.985Z,4.37
2023-01-17T12:18:10.019Z,4.35
2023-01-17T12:19:10.064Z,4.4
2023-01-17T12:20:10.114Z,4.39
2023-01-17T12:21:10.122Z,4.35
2023-01-17T12:22:10.172Z,4.32
2023-01-17T12:23:10.201Z,4.31
2023-01-17T12:24:10.243Z,4.32
2023-01-17T12:25:10.280Z,4.3
2023-01-17T12:26:10.307Z,4.29
2023-01-17T12:27:10.338Z,4.29
2023-01-17T12:28:10.374Z,4.32
2023-01-17T12:29:10.427Z,4.28
2023-01-17T12:30:10.469Z,4.25
2023-01-17T12:31:10.580Z,4.22
2023-01-17T12:32:10.528Z,4.24
2023-01-17T12:33:10.595Z,4.18
2023-01-17T12:34:10.598Z,4.14
2023-01-17T12:35:10.632Z,4.16
2023-01-17T12:36:10.664Z,4.11
2023-01-17T12:37:10.699Z,4.11
2023-01-17T12:38:18.094Z,4.13
2023-01-17T12:39:10.750Z,4.09
2023-01-17T12:40:10.790Z,4.09
2023-01-17T12:41:10.832Z,4.12
2023-01-17T12:42:10.851Z,4.08
2023-01-17T12:43:10.909Z,4.07
2023-01-17T12:44:10.933Z,4.07
2023-01-17T12:45:10.963Z,4.05
2023-01-17T12:46:11.035Z,4.05
2023-01-17T12:47:11.041Z,4.07
2023-01-17T12:48:11.060Z,4.1
2023-01-17T12:49:11.097Z,4.14
2023-01-17T12:50:11.132Z,4.14
2023-01-17T12:51:11.159Z,4.14
2023-01-17T12:52:11.195Z,4.13
2023-01-17T12:53:11.240Z,4.14
2023-01-17T12:54:11.284Z,4.16
2023-01-17T12:55:11.309Z,4.12
2023-01-17T12:56:11.342Z,4.14
2023-01-17T12:57:13.834Z,4.15
2023-01-17T12:58:11.414Z,4.13
2023-01-17T12:59:11.434Z,4.13
2023-01-17T13:00:11.482Z,4.15
2023-01-17T13:01:11.635Z,4.13
2023-01-17T13:02:11.595Z,4.08
2023-01-17T13:03:11.599Z,4.05
2023-01-17T13:04:11.629Z,4.05
2023-01-17T13:05:11.669Z,4.12
2023-01-17T13:06:11.698Z,4.13
2023-01-17T13:07:11.733Z,4.17
2023-01-17T13:08:11.761Z,4.17
2023-01-17T13:09:11.843Z,4.16
2023-01-17T13:10:11.929Z,4.15
2023-01-17T13:11:11.877Z,4.15
2023-01-17T13:12:11.888Z,4.14
2023-01-17T13:13:11.942Z,4.17
2023-01-17T13:14:12.014Z,4.2
2023-01-17T13:15:11.992Z,4.24
2023-01-17T13:16:12.091Z,4.23
2023-01-17T13:17:12.137Z,4.24
2023-01-17T13:18:12.085Z,4.27
2023-01-17T13:19:12.136Z,4.21
2023-01-17T13:20:12.191Z,4.22
2023-01-17T13:21:12.211Z,4.22